4 de julho de 2022

Hora Código Clima Temp. Visibilidade Tecto Vento METAR/SPECI
7:00 da tarde
V
73 °F 15 mi 24.000 ft 130° 130° 6 kt METAR CYYZ 042300Z 13006KT 090V150 15SM SCT085 SCT140 OVC240 23/11 A3008 RMK AC3AC1CS4 SLP188 DENSITY ALT 1500FT
6:00 da tarde
V
75 °F 15 mi 14.000 ft 130° 130° 6 kt METAR CYYZ 042200Z 13006KT 15SM SCT085 BKN140 BKN250 24/10 A3009 RMK AC3AC3CI1 SLP189 DENSITY ALT 1500FT
5:00 da tarde
V
75 °F 15 mi 11.000 ft 180° 180° 5 kt METAR CYYZ 042100Z 18005KT 120V200 15SM SCT080 BKN110 24/11 A3010 RMK AC4AC3 SLP194 DENSITY ALT 1600FT
4:00 da tarde
V
75 °F 15 mi 7.100 ft 130° 130° 7 kt METAR CYYZ 042000Z 13007KT 15SM BKN071 BKN140 24/10 A3011 RMK AC5AC2 SLP198 DENSITY ALT 1500FT
3:00 da tarde
V
79 °F 15 mi 8.200 ft 130° 130° 6 kt METAR CYYZ 041900Z 13006KT 15SM FEW055 BKN082 BKN140 26/11 A3012 RMK CF1AC5AC2 CF TR SLP200 DENSITY ALT 1800FT
2:00 da tarde
V
77 °F 15 mi 10.000 ft 160° 160° 8 kt METAR CYYZ 041800Z 16008KT 100V170 15SM FEW055 BKN100 BKN160 BKN260 25/10 A3013 RMK CU1AC5AC1CI1 CU TR CI TR SLP205 DENSITY ALT 1700FT
1:00 da tarde
V
77 °F 15 mi 26.000 ft 150° 150° 9 kt METAR CYYZ 041700Z 15009KT 15SM FEW045 FEW120 SCT180 BKN260 25/10 A3015 RMK CU1AC1AC2CI2 CU TR SLP210 DENSITY ALT 1600FT
12:00 da tarde
V
75 °F 15 mi - 170° 170° 8 kt METAR CYYZ 041600Z 17008KT 100V200 15SM FEW040 FEW140 SCT260 24/10 A3016 RMK CF1AC1CI3 CF TR SLP213 DENSITY ALT 1600FT
11:00 da manhã
V
75 °F 15 mi - 160° 160° 3 kt METAR CYYZ 041500Z 16003KT 100V190 15SM FEW150 SCT260 24/11 A3017 RMK AC1CI2 SLP217 DENSITY ALT 1500FT
10:00 da manhã
V
73 °F 15 mi - 170° 170° 4 kt METAR CYYZ 041400Z 17004KT 080V210 15SM FEW180 FEW260 23/10 A3017 RMK AC1CI2 AC TR SLP216 DENSITY ALT 1400FT
9:00 da manhã
V
72 °F 15 mi - Var Var 2 kt METAR CYYZ 041300Z VRB02KT 15SM FEW180 FEW250 22/11 A3017 RMK AC1CI1 SLP218 DENSITY ALT 1300FT
8:00 da manhã
V
68 °F 15 mi - 020° 020° 3 kt METAR CYYZ 041200Z 02003KT 280V050 15SM FEW080 FEW180 SCT250 20/11 A3018 RMK AC1AC2CI1 AC TR SLP220 DENSITY ALT 1000FT
7:00 da manhã
V
64 °F 15 mi - 310° 310° 3 kt METAR CYYZ 041100Z 31003KT 300V010 15SM FEW080 FEW140 SCT250 18/10 A3017 RMK AC2AC1CI1 AC TR SLP216 DENSITY ALT 800FT
6:00 da manhã
V
63 °F 15 mi 7.200 ft 310° 310° 5 kt METAR CYYZ 041000Z 31005KT 15SM BKN072 17/10 A3016 RMK AC5 SLP215 DENSITY ALT 600FT
5:00 da manhã
V
63 °F 15 mi 7.500 ft 020° 020° 4 kt METAR CYYZ 040900Z 02004KT 15SM BKN075 17/10 A3015 RMK AC5 SLP211 DENSITY ALT 700FT
4:00 da manhã
V
63 °F 15 mi - 320° 320° 4 kt METAR CYYZ 040800Z 32004KT 15SM FEW080 FEW240 17/10 A3015 RMK AC1CI1 AC TR CI TR SLP211 DENSITY ALT 700FT
3:00 da manhã
V
63 °F 15 mi - 280° 280° 3 kt METAR CYYZ 040700Z 28003KT 15SM SCT230 17/09 A3016 RMK CI3 SLP214 DENSITY ALT 700FT
2:00 da manhã
V
64 °F 15 mi - Var Var 2 kt METAR CYYZ 040600Z VRB02KT 15SM FEW240 18/09 A3016 RMK CI2 SLP213 DENSITY ALT 800FT
1:00 da manhã
V
64 °F 15 mi - 010° 010° 2 kt METAR CYYZ 040500Z 01002KT 15SM FEW240 18/09 A3015 RMK CI1 SLP210 DENSITY ALT 900FT
12:00 da manhã
V
66 °F 15 mi - 350° 350° 6 kt METAR CYYZ 040400Z 35006KT 15SM SCT260 19/09 A3015 RMK CI3 SLP209 DENSITY ALT 1000FT

3 de julho de 2022

Hora Código Clima Temp. Visibilidade Tecto Vento METAR/SPECI
11:00 da tarde
V
68 °F 15 mi - 010° 010° 6 kt METAR CYYZ 040300Z 01006KT 15SM SCT260 20/09 A3014 RMK CI3 SLP208 DENSITY ALT 1100FT
10:00 da tarde
V
70 °F 15 mi - 010° 010° 8 kt METAR CYYZ 040200Z 01008KT 15SM SCT260 21/09 A3013 RMK CI3 SLP205 DENSITY ALT 1200FT
9:00 da tarde
V
72 °F 15 mi - 030° 030° 10 kt METAR CYYZ 040100Z 03010KT 15SM FEW260 22/09 A3011 RMK CI1 CI TR SLP198 DENSITY ALT 1300FT
8:00 da tarde
V
75 °F 15 mi - 020° 020° 11 kt METAR CYYZ 040000Z 02011KT 15SM FEW080 FEW260 24/09 A3011 RMK CF1CI1 CF TR SLP196 DENSITY ALT 1600FT
7:00 da tarde
V
79 °F 15 mi - 300° 300° 13 kt METAR CYYZ 032300Z 30013KT 270V010 15SM FEW080 SCT260 26/07 A3010 RMK CU2CI1 SLP193 DENSITY ALT 1800FT
6:00 da tarde
V
81 °F 15 mi - 290° 290° 11 - 20 kt METAR CYYZ 032200Z 29011G20KT 15SM SCT080 27/07 A3010 RMK CU3 SLP192 DENSITY ALT 1900FT
5:00 da tarde
V
79 °F 15 mi - 330° 330° 14 - 19 kt METAR CYYZ 032100Z 33014G19KT 15SM SCT085 26/07 A3010 RMK CU4 SLP195 DENSITY ALT 1800FT
4:00 da tarde
V
81 °F 15 mi - 270° 270° 6 kt METAR CYYZ 032000Z 27006KT 170V320 15SM SCT090 27/06 A3010 RMK CU3 SLP192 DENSITY ALT 1900FT
3:00 da tarde
V
77 °F 15 mi - 140° 140° 12 kt METAR CYYZ 031900Z 14012KT 15SM FEW085 FEW250 25/08 A3010 RMK CU2CI1 CI TR SLP194 DENSITY ALT 1600FT
2:00 da tarde
V
75 °F 15 mi - 160° 160° 11 kt METAR CYYZ 031800Z 16011KT 15SM FEW070 FEW230 24/09 A3011 RMK CU1CI1 SLP196 DENSITY ALT 1600FT
1:00 da tarde
V
75 °F 15 mi - 270° 270° 5 kt METAR CYYZ 031700Z 27005KT 240V360 15SM FEW050 FEW250 24/08 A3012 RMK CF1CI1 CF TR CI TR SLP200 DENSITY ALT 1600FT
12:00 da tarde
V
73 °F 15 mi - 360° 360° 8 kt METAR CYYZ 031600Z 36008KT 290V070 15SM FEW250 23/08 A3015 RMK CI1 CI TR SLP209 DENSITY ALT 1500FT
11:00 da manhã
V
72 °F 15 mi - 020° 020° 7 kt METAR CYYZ 031500Z 02007KT 280V030 15SM FEW250 22/08 A3015 RMK CI1 CI TR SLP211 DENSITY ALT 1300FT
10:00 da manhã
V
68 °F 15 mi - 030° 030° 2 kt METAR CYYZ 031400Z 03002KT 15SM FEW250 20/08 A3014 RMK CI1 SLP207 DENSITY ALT 1100FT
9:00 da manhã
V
66 °F 15 mi - 350° 350° 9 kt METAR CYYZ 031300Z 35009KT 15SM SKC 19/09 A3013 RMK SLP205 DENSITY ALT 1000FT
8:00 da manhã
V
63 °F 15 mi - 340° 340° 10 kt METAR CYYZ 031200Z 34010KT 15SM SKC 17/08 A3012 RMK SLP200 DENSITY ALT 700FT
7:00 da manhã
V
59 °F 15 mi - 350° 350° 8 - 15 kt METAR CYYZ 031100Z 35008G15KT 15SM FEW180 15/07 A3011 RMK AC1 AC TR SLP196 DENSITY ALT 600FT
6:00 da manhã
V
57 °F 15 mi - 310° 310° 7 kt METAR CYYZ 031000Z 31007KT 15SM FEW260 14/07 A3009 RMK CI1 CI TR SLP189
5:00 da manhã
V
57 °F 15 mi - 310° 310° 7 kt METAR CYYZ 030900Z 31007KT 15SM FEW260 14/07 A3006 RMK CI1 CI TR SLP180
4:00 da manhã
V
57 °F 15 mi - 280° 280° 7 kt METAR CYYZ 030800Z 28007KT 15SM FEW230 14/06 A3005 RMK CI1 SLP178
3:00 da manhã
V
61 °F 15 mi - 290° 290° 8 kt METAR CYYZ 030700Z 29008KT 15SM SCT230 16/06 A3005 RMK CI3 SLP176 DENSITY ALT 700FT
2:00 da manhã
V
63 °F 15 mi - 290° 290° 8 kt METAR CYYZ 030600Z 29008KT 15SM SCT230 17/06 A3005 RMK CI3 SLP175 DENSITY ALT 900FT
1:00 da manhã
V
64 °F 15 mi - 310° 310° 10 kt METAR CYYZ 030500Z 31010KT 15SM FEW170 SCT220 18/06 A3003 RMK AC1CI3 SLP169 DENSITY ALT 1000FT
12:00 da manhã
V
68 °F 15 mi - 310° 310° 10 kt METAR CYYZ 030400Z 31010KT 15SM SCT240 20/07 A3002 RMK CI3 SLP166 DENSITY ALT 1200FT

2 de julho de 2022

Hora Código Clima Temp. Visibilidade Tecto Vento METAR/SPECI
11:00 da tarde
V
70 °F 15 mi - 340° 340° 11 kt METAR CYYZ 030300Z 34011KT 15SM FEW240 21/08 A3000 RMK CI1 SLP160 DENSITY ALT 1400FT
10:00 da tarde
V
73 °F 15 mi - 300° 300° 10 kt METAR CYYZ 030200Z 30010KT 15SM FEW220 23/07 A2999 RMK CI1 SLP155 DENSITY ALT 1600FT
9:00 da tarde
V
75 °F 15 mi - 310° 310° 10 kt METAR CYYZ 030100Z 31010KT 15SM FEW230 24/06 A2996 RMK CI2 SLP145 DENSITY ALT 1700FT
8:00 da tarde
V
77 °F 15 mi - 310° 310° 15 - 21 kt METAR CYYZ 030000Z 31015G21KT 15SM FEW260 25/05 A2995 RMK CI1 CI TR SLP141 DENSITY ALT 1900FT
7:00 da tarde
V
79 °F 15 mi - 300° 300° 14 - 20 kt METAR CYYZ 022300Z 30014G20KT 15SM FEW240 26/05 A2992 RMK CI1 SLP134 DENSITY ALT 2000FT
6:00 da tarde
V
81 °F 15 mi - 300° 300° 13 - 20 kt METAR CYYZ 022200Z 30013G20KT 15SM FEW065 FEW180 27/08 A2992 RMK CU1AC1 CU TR SLP132 DENSITY ALT 2200FT
5:00 da tarde
V
82 °F 15 mi - 270° 270° 15 - 23 kt METAR CYYZ 022100Z 27015G23KT 15SM FEW065 SCT120 SCT250 28/10 A2992 RMK CU2AC1CI1 SLP133 DENSITY ALT 2200FT
4:00 da tarde
V
84 °F 15 mi 25.000 ft 260° 260° 17 - 26 kt METAR CYYZ 022000Z 26017G26KT 250V310 15SM SCT065 BKN250 29/11 A2992 RMK CU4CI1 SLP132 DENSITY ALT 2300FT
3:00 da tarde
V
82 °F 15 mi 23.000 ft 280° 280° 19 - 25 kt METAR CYYZ 021900Z 28019G25KT 15SM SCT065 BKN230 28/10 A2992 RMK CU4CI1 SLP130 DENSITY ALT 2200FT
2:00 da tarde
V
82 °F 15 mi 7.500 ft 270° 270° 15 - 24 kt METAR CYYZ 021800Z 27015G24KT 15SM BKN075 BKN230 28/11 A2992 RMK CU5CI2 SLP130 DENSITY ALT 2200FT
1:00 da tarde
V
82 °F 15 mi 25.000 ft 240° 240° 15 - 21 kt METAR CYYZ 021700Z 24015G21KT 15SM FEW080 BKN250 28/08 A2992 RMK CU1CI4 SLP133 DENSITY ALT 2200FT
12:00 da tarde
V
81 °F 15 mi - 270° 270° 12 - 17 kt METAR CYYZ 021600Z 27012G17KT 220V280 15SM FEW080 SCT250 27/07 A2993 RMK AC1CI3 AC TR SLP136 DENSITY ALT 2100FT
11:00 da manhã
V
77 °F 15 mi - 240° 240° 5 kt METAR CYYZ 021500Z 24005KT 15SM FEW230 25/08 A2993 RMK CI1 CI TR SLP136 DENSITY ALT 1900FT
Dados mais antigos

Baixe nosso aplicativo

Fácil acesso a todas as condições meteorológicas da aviação no seu celular e no seu tablet.
Com muitas características não disponíveis no site, como suporte offline e uma lista pessoal de aeroportos.

Nós e terceiros acompanhamos seu comportamento na internet em nosso site com cookies. Se você continuar, nós assumimos que você concorda com nossa política de cookies. Saiba mais